createdAt,value
2023-01-04T00:02:01.917Z,1.47
2023-01-04T00:04:30.176Z,1.27
2023-01-04T00:06:58.124Z,1.20
2023-01-04T00:09:26.137Z,0.87
2023-01-04T00:11:55.434Z,1.90
2023-01-04T00:14:23.720Z,1.40
2023-01-04T00:16:51.764Z,1.40
2023-01-04T00:19:19.750Z,0.80
2023-01-04T00:21:47.731Z,1.57
2023-01-04T00:24:16.341Z,1.70
2023-01-04T00:26:44.295Z,1.30
2023-01-04T00:29:14.569Z,1.30
2023-01-04T00:31:44.585Z,0.83
2023-01-04T00:34:15.559Z,1.97
2023-01-04T00:36:44.351Z,1.77
2023-01-04T00:39:15.440Z,2.07
2023-01-04T00:42:01.695Z,3.83
2023-01-04T00:44:32.118Z,2.40
2023-01-04T00:47:01.281Z,1.67
2023-01-04T00:49:30.691Z,2.73
2023-01-04T00:52:01.164Z,2.60
2023-01-04T00:54:29.655Z,3.50
2023-01-04T00:56:58.707Z,3.13
2023-01-04T00:59:26.753Z,3.00
2023-01-04T01:01:56.173Z,3.43
2023-01-04T01:04:25.409Z,2.80
2023-01-04T01:06:54.359Z,4.07
2023-01-04T01:09:23.672Z,2.67
2023-01-04T01:11:52.798Z,3.10
2023-01-04T01:14:23.259Z,3.23
2023-01-04T01:16:57.170Z,4.93
2023-01-04T01:19:28.335Z,3.30
2023-01-04T01:21:57.250Z,1.03
2023-01-04T01:24:25.478Z,1.43
2023-01-04T01:26:53.576Z,1.20
2023-01-04T01:29:21.974Z,0.87
2023-01-04T01:31:50.059Z,0.93
2023-01-04T01:34:18.182Z,1.97
2023-01-04T01:36:47.532Z,1.90
2023-01-04T01:39:15.606Z,1.83
2023-01-04T01:41:43.970Z,2.03
2023-01-04T01:44:45.319Z,1.13
2023-01-04T01:47:16.016Z,1.17
2023-01-04T01:49:45.741Z,0.83
2023-01-04T01:52:19.117Z,1.63
2023-01-04T01:54:50.554Z,1.20
2023-01-04T01:57:23.513Z,1.10
2023-01-04T01:59:54.493Z,2.10
2023-01-04T02:02:22.692Z,0.77
2023-01-04T02:04:52.276Z,1.63
2023-01-04T02:07:23.707Z,2.00
2023-01-04T02:09:54.566Z,0.97
2023-01-04T02:12:22.587Z,1.40
2023-01-04T02:14:52.138Z,1.00
2023-01-04T02:17:31.550Z,1.37
2023-01-04T02:20:33.088Z,1.67
2023-01-04T02:23:48.837Z,0.87
2023-01-04T02:27:00.635Z,1.90
2023-01-04T02:29:54.186Z,0.70
2023-01-04T02:32:34.617Z,1.77
2023-01-04T02:35:10.908Z,1.57
2023-01-04T02:37:45.302Z,2.00
2023-01-04T02:40:22.254Z,4.23
2023-01-04T02:43:16.361Z,1.93
2023-01-04T02:45:52.226Z,1.70
2023-01-04T02:48:39.277Z,2.63
2023-01-04T02:51:22.310Z,1.93
2023-01-04T02:53:50.274Z,2.50
2023-01-04T02:56:35.650Z,3.03
2023-01-04T02:59:19.647Z,1.90
2023-01-04T03:02:12.560Z,2.00
2023-01-04T03:05:12.328Z,1.17
2023-01-04T03:07:45.622Z,1.37
2023-01-04T03:10:20.141Z,1.63
2023-01-04T03:12:52.724Z,0.93
2023-01-04T03:15:26.805Z,1.10
2023-01-04T03:17:58.707Z,1.73
2023-01-04T03:20:31.447Z,2.27
2023-01-04T03:23:21.511Z,1.37
2023-01-04T03:26:12.106Z,1.40
2023-01-04T03:29:00.638Z,2.00
2023-01-04T03:31:51.387Z,1.93
2023-01-04T03:34:37.326Z,2.30
2023-01-04T03:37:13.684Z,1.90
2023-01-04T03:40:17.132Z,2.43
2023-01-04T03:43:07.838Z,3.47
2023-01-04T03:45:59.688Z,3.27
2023-01-04T03:48:33.347Z,2.10
2023-01-04T03:51:14.790Z,2.30
2023-01-04T03:53:52.948Z,2.57
2023-01-04T03:56:23.506Z,2.47
2023-01-04T03:58:51.963Z,2.90
2023-01-04T04:01:21.337Z,2.57
2023-01-04T04:04:07.117Z,3.20
2023-01-04T04:06:52.496Z,2.43
2023-01-04T04:09:22.008Z,2.87
2023-01-04T04:11:50.252Z,2.37
2023-01-04T04:14:18.348Z,2.00
2023-01-04T04:16:46.482Z,1.17
2023-01-04T04:19:14.561Z,2.30
2023-01-04T04:21:42.658Z,2.40
2023-01-04T04:24:17.490Z,2.67
2023-01-04T04:26:46.986Z,1.97
2023-01-04T04:29:14.950Z,2.03
2023-01-04T04:31:42.972Z,2.60
2023-01-04T04:34:11.492Z,2.73
2023-01-04T04:36:39.485Z,3.70
2023-01-04T04:39:07.853Z,2.73
2023-01-04T04:41:41.838Z,2.17
2023-01-04T04:44:13.998Z,1.47
2023-01-04T04:46:42.548Z,1.73
2023-01-04T04:49:11.570Z,1.93
2023-01-04T04:51:39.623Z,1.83
2023-01-04T04:54:08.661Z,2.37
2023-01-04T04:56:37.919Z,2.57
2023-01-04T04:59:07.197Z,1.60
2023-01-04T05:01:37.069Z,2.40
2023-01-04T05:04:05.616Z,2.20
2023-01-04T05:06:33.628Z,2.67
2023-01-04T05:09:01.685Z,2.27
2023-01-04T05:11:47.213Z,2.53
2023-01-04T05:14:15.328Z,2.17
2023-01-04T05:16:45.224Z,2.33
2023-01-04T05:19:15.380Z,1.70
2023-01-04T05:21:43.369Z,2.20
2023-01-04T05:24:15.502Z,2.27
2023-01-04T05:26:43.453Z,2.00
2023-01-04T05:29:31.446Z,2.60
2023-01-04T05:31:59.840Z,2.03
2023-01-04T05:34:27.919Z,2.23
2023-01-04T05:36:55.837Z,2.93
2023-01-04T05:39:23.882Z,2.60
2023-01-04T05:42:09.199Z,2.20
2023-01-04T05:44:37.292Z,3.00
2023-01-04T05:47:12.908Z,2.90
2023-01-04T05:49:42.840Z,2.70
2023-01-04T05:52:10.966Z,2.60
2023-01-04T05:54:39.065Z,2.93
2023-01-04T05:57:07.291Z,2.40
2023-01-04T05:59:41.047Z,2.63
2023-01-04T06:02:15.578Z,2.83
2023-01-04T06:04:43.799Z,2.63
2023-01-04T06:07:11.776Z,3.07
2023-01-04T06:09:39.766Z,3.40
2023-01-04T06:12:08.481Z,2.63
2023-01-04T06:14:36.711Z,2.70
2023-01-04T06:17:05.224Z,3.10
2023-01-04T06:19:34.769Z,2.40
2023-01-04T06:22:02.730Z,3.30
2023-01-04T06:24:30.734Z,2.30
2023-01-04T06:26:58.793Z,2.67
2023-01-04T06:29:26.805Z,1.37
2023-01-04T06:31:54.794Z,1.33
2023-01-04T06:34:30.275Z,1.00
2023-01-04T06:37:00.383Z,0.50
2023-01-04T06:39:28.399Z,0.77
2023-01-04T06:42:03.763Z,1.60
2023-01-04T06:44:34.123Z,0.80
2023-01-04T06:47:02.177Z,2.20
2023-01-04T06:49:30.181Z,1.00
2023-01-04T06:51:58.175Z,0.90
2023-01-04T06:54:27.547Z,1.53
2023-01-04T06:56:55.524Z,0.60
2023-01-04T06:59:23.453Z,1.00
2023-01-04T07:01:51.610Z,1.17
2023-01-04T07:04:19.913Z,1.03
2023-01-04T07:06:47.903Z,1.90
2023-01-04T07:09:15.898Z,1.30
2023-01-04T07:11:45.769Z,2.83
2023-01-04T07:14:14.072Z,1.60
2023-01-04T07:16:42.126Z,1.53
2023-01-04T07:19:10.673Z,2.30
2023-01-04T07:21:38.670Z,2.23
2023-01-04T07:24:06.961Z,1.67
2023-01-04T07:26:35.046Z,1.60
2023-01-04T07:29:17.111Z,2.10
2023-01-04T07:31:47.458Z,2.57
2023-01-04T07:34:16.459Z,2.80
2023-01-04T07:36:44.598Z,1.73
2023-01-04T07:39:13.008Z,1.93
2023-01-04T07:41:41.891Z,1.47
2023-01-04T07:44:12.519Z,3.33
2023-01-04T07:46:40.840Z,1.67
2023-01-04T07:49:16.643Z,2.60
2023-01-04T07:51:46.007Z,2.10
2023-01-04T07:54:14.206Z,1.50
2023-01-04T07:56:42.201Z,1.23
2023-01-04T07:59:12.588Z,2.17
2023-01-04T08:01:40.769Z,1.50
2023-01-04T08:04:10.951Z,1.87
2023-01-04T08:06:42.805Z,1.77
2023-01-04T08:09:13.483Z,1.80
2023-01-04T08:11:41.945Z,2.30
2023-01-04T08:14:11.700Z,2.80
2023-01-04T08:16:44.306Z,3.70
2023-01-04T08:19:15.505Z,2.97
2023-01-04T08:21:44.026Z,1.17
2023-01-04T08:24:13.287Z,1.83
2023-01-04T08:26:41.406Z,1.17
2023-01-04T08:29:09.370Z,2.60
2023-01-04T08:31:38.909Z,1.23
2023-01-04T08:34:08.737Z,1.10
2023-01-04T08:36:38.033Z,1.23
2023-01-04T08:39:07.343Z,1.70
2023-01-04T08:42:01.090Z,1.00
2023-01-04T08:44:36.176Z,2.00
2023-01-04T08:47:06.215Z,3.07
2023-01-04T08:49:34.432Z,3.03
2023-01-04T08:52:04.497Z,3.40
2023-01-04T08:54:33.495Z,1.87
2023-01-04T08:57:01.548Z,2.63
2023-01-04T08:59:29.872Z,3.10
2023-01-04T09:02:04.877Z,2.43
2023-01-04T09:04:35.088Z,3.07
2023-01-04T09:07:03.443Z,3.07
2023-01-04T09:09:31.615Z,3.27
2023-01-04T09:11:59.736Z,1.27
2023-01-04T09:14:28.162Z,2.60
2023-01-04T09:16:56.242Z,4.23
2023-01-04T09:19:24.323Z,3.17
2023-01-04T09:21:53.774Z,2.60
2023-01-04T09:24:21.863Z,2.83
2023-01-04T09:26:49.969Z,5.10
2023-01-04T09:29:18.119Z,2.57
2023-01-04T09:31:46.169Z,2.80
2023-01-04T09:34:16.413Z,3.27
2023-01-04T09:36:45.093Z,6.17
2023-01-04T09:39:21.527Z,3.23
2023-01-04T09:41:57.127Z,2.83
2023-01-04T09:47:33.980Z,2.50
2023-01-04T09:50:05.279Z,3.70
2023-01-04T09:52:43.944Z,3.63
2023-01-04T09:55:37.112Z,3.20
2023-01-04T09:58:18.893Z,3.13
2023-01-04T10:00:49.739Z,5.67
2023-01-04T10:03:23.133Z,4.57
2023-01-04T10:05:52.265Z,4.43
2023-01-04T10:08:21.034Z,4.10
2023-01-04T10:10:55.472Z,3.60
2023-01-04T10:13:43.747Z,3.23
2023-01-04T10:16:30.316Z,3.17
2023-01-04T10:20:57.993Z,3.50
2023-01-04T10:22:15.307Z,3.40
2023-01-04T10:24:52.168Z,2.83
2023-01-04T10:27:34.340Z,3.07
2023-01-04T10:30:22.161Z,3.70
2023-01-04T10:32:57.351Z,2.40
2023-01-04T10:35:27.324Z,3.37
2023-01-04T10:37:59.730Z,2.77
2023-01-04T10:40:30.559Z,3.20
2023-01-04T10:43:05.439Z,2.80
2023-01-04T10:45:39.959Z,2.73
2023-01-04T10:48:15.996Z,3.20
2023-01-04T10:50:51.047Z,2.90
2023-01-04T10:53:21.780Z,3.80
2023-01-04T10:56:23.626Z,3.67
2023-01-04T10:58:53.010Z,3.87
2023-01-04T11:01:26.217Z,5.97
2023-01-04T11:03:58.379Z,3.95
2023-01-04T11:06:31.757Z,4.50
2023-01-04T11:09:04.252Z,3.53
2023-01-04T11:11:36.249Z,3.80
2023-01-04T11:14:06.194Z,3.70
2023-01-04T11:16:34.411Z,4.10
2023-01-04T11:19:04.246Z,2.17
2023-01-04T11:21:36.582Z,1.50
2023-01-04T11:24:31.039Z,1.50
2023-01-04T11:26:57.608Z,1.50
2023-01-04T11:29:34.213Z,1.90
2023-01-04T11:32:07.119Z,1.97
2023-01-04T11:34:46.229Z,1.30
2023-01-04T11:37:34.430Z,1.00
2023-01-04T11:40:19.305Z,1.30
2023-01-04T11:42:49.739Z,1.57
2023-01-04T11:45:22.176Z,1.40
2023-01-04T11:47:52.256Z,2.27
2023-01-04T11:50:40.060Z,2.73
2023-01-04T11:53:32.792Z,1.63
2023-01-04T11:56:20.524Z,2.00
2023-01-04T11:59:12.832Z,1.90
2023-01-04T12:01:45.127Z,2.23
2023-01-04T12:04:16.287Z,1.90
2023-01-04T12:06:50.721Z,3.03
2023-01-04T12:09:20.525Z,2.30
2023-01-04T12:11:51.167Z,2.57
2023-01-04T12:14:25.587Z,2.37
2023-01-04T12:17:01.116Z,2.40
2023-01-04T12:19:30.132Z,2.30
2023-01-04T12:22:00.253Z,2.70
2023-01-04T12:24:31.763Z,2.97
2023-01-04T12:27:01.699Z,2.40
2023-01-04T12:29:44.626Z,2.57
2023-01-04T12:32:46.378Z,3.13
2023-01-04T12:36:03.158Z,3.93
2023-01-04T12:39:23.610Z,3.67
2023-01-04T12:42:17.890Z,5.00
2023-01-04T12:45:22.284Z,6.27
2023-01-04T12:48:10.878Z,5.30
2023-01-04T12:51:37.236Z,6.20
2023-01-04T12:54:24.593Z,6.60
2023-01-04T12:57:25.135Z,6.70
2023-01-04T12:59:58.272Z,18.20
2023-01-04T13:02:29.141Z,18.57
2023-01-04T13:05:53.436Z,19.37
2023-01-04T13:07:51.942Z,20.80
2023-01-04T13:10:28.050Z,7.77
2023-01-04T13:13:24.730Z,8.80
2023-01-04T13:16:11.770Z,9.43
2023-01-04T13:18:42.889Z,11.10
2023-01-04T13:21:18.048Z,15.63
2023-01-04T13:23:52.522Z,12.40
2023-01-04T13:26:39.225Z,13.20
2023-01-04T13:29:09.550Z,14.17
2023-01-04T13:32:03.145Z,15.20
2023-01-04T13:34:34.032Z,14.90
2023-01-04T13:37:24.953Z,14.93
2023-01-04T13:40:01.167Z,15.70
2023-01-04T13:42:33.341Z,16.00
2023-01-04T13:45:33.823Z,15.90
2023-01-04T13:48:04.301Z,15.63
2023-01-04T13:50:35.814Z,16.00
2023-01-04T13:53:08.453Z,14.70
2023-01-04T13:55:38.881Z,25.27
2023-01-04T13:58:08.249Z,27.40
2023-01-04T14:00:43.040Z,25.73
2023-01-04T14:03:28.604Z,20.57
2023-01-04T14:06:04.640Z,19.10
2023-01-04T14:08:37.380Z,15.53
2023-01-04T14:11:38.213Z,16.13
2023-01-04T14:14:19.372Z,17.80
2023-01-04T14:16:47.591Z,18.60
2023-01-04T14:19:42.803Z,17.30
2023-01-04T14:22:42.683Z,15.53
2023-01-04T14:25:40.811Z,16.00
2023-01-04T14:28:32.559Z,15.10
2023-01-04T14:31:20.366Z,12.33
2023-01-04T14:33:50.573Z,10.80
2023-01-04T14:36:22.655Z,10.67
2023-01-04T14:38:58.569Z,9.90
2023-01-04T14:41:32.165Z,10.20
2023-01-04T14:44:14.507Z,9.70
2023-01-04T14:46:43.703Z,9.27
2023-01-04T14:49:11.828Z,9.63
2023-01-04T14:51:44.125Z,8.90
2023-01-04T14:54:17.479Z,9.03
2023-01-04T14:56:50.058Z,8.00
2023-01-04T14:59:18.000Z,7.90
2023-01-04T15:01:46.141Z,7.60
2023-01-04T15:04:14.399Z,7.63
2023-01-04T15:06:52.414Z,7.63
2023-01-04T15:09:20.469Z,7.30
2023-01-04T15:11:49.849Z,6.77
2023-01-04T15:14:18.275Z,5.90
2023-01-04T15:16:46.329Z,5.23
2023-01-04T15:19:14.683Z,5.60
2023-01-04T15:21:42.675Z,5.80
2023-01-04T15:24:11.254Z,6.07
2023-01-04T15:26:39.758Z,4.73
2023-01-04T15:29:09.863Z,5.00
2023-01-04T15:31:40.547Z,5.20
2023-01-04T15:34:10.163Z,4.27
2023-01-04T15:36:41.011Z,13.53
2023-01-04T15:39:12.664Z,14.17
2023-01-04T15:41:58.162Z,15.60
2023-01-04T15:44:27.761Z,14.30
2023-01-04T15:46:56.125Z,13.27
2023-01-04T15:49:24.301Z,13.63
2023-01-04T15:51:52.323Z,11.93
2023-01-04T15:54:21.902Z,12.03
2023-01-04T15:56:50.121Z,2.90
2023-01-04T15:59:18.251Z,4.10
2023-01-04T16:01:48.319Z,2.60
2023-01-04T16:04:16.704Z,3.23
2023-01-04T16:06:44.700Z,3.03
2023-01-04T16:09:12.821Z,3.03
2023-01-04T16:12:02.033Z,2.83
2023-01-04T16:14:30.211Z,2.30
2023-01-04T16:16:59.515Z,3.17
2023-01-04T16:19:27.614Z,2.93
2023-01-04T16:21:56.177Z,3.40
2023-01-04T16:25:08.255Z,2.40
2023-01-04T16:27:12.192Z,2.87
2023-01-04T16:29:40.290Z,2.73
2023-01-04T16:32:09.625Z,2.37
2023-01-04T16:34:37.901Z,2.93
2023-01-04T16:37:06.240Z,3.20
2023-01-04T16:40:09.782Z,2.70
2023-01-04T16:42:22.554Z,2.97
2023-01-04T16:44:50.695Z,2.60
2023-01-04T16:47:20.066Z,2.67
2023-01-04T16:49:52.470Z,2.47
2023-01-04T16:52:20.485Z,2.63
2023-01-04T16:54:49.621Z,1.90
2023-01-04T16:57:17.650Z,2.23
2023-01-04T16:59:45.637Z,2.47
2023-01-04T17:02:13.739Z,1.83
2023-01-04T17:04:43.218Z,2.10
2023-01-04T17:07:11.478Z,1.87
2023-01-04T17:09:41.233Z,3.77
2023-01-04T17:12:45.435Z,2.03
2023-01-04T17:17:45.519Z,5.63
2023-01-04T17:20:15.105Z,6.87
2023-01-04T17:22:43.067Z,6.83
2023-01-04T17:25:11.657Z,6.70
2023-01-04T17:27:39.706Z,5.60
2023-01-04T17:30:09.063Z,6.83
2023-01-04T17:32:37.031Z,6.17
2023-01-04T17:35:05.429Z,6.17
2023-01-04T17:37:34.755Z,6.00
2023-01-04T17:40:02.827Z,6.23
2023-01-04T17:42:33.605Z,6.90
2023-01-04T17:45:01.707Z,5.67
2023-01-04T17:47:32.536Z,6.27
2023-01-04T17:50:00.556Z,5.87
2023-01-04T17:52:31.247Z,5.97
2023-01-04T17:55:01.501Z,5.93
2023-01-04T17:57:31.155Z,2.00
2023-01-04T17:59:59.196Z,1.33
2023-01-04T18:02:27.257Z,1.37
2023-01-04T18:04:55.483Z,2.60
2023-01-04T18:07:25.458Z,1.40
2023-01-04T18:09:53.864Z,1.20
2023-01-04T18:12:23.426Z,2.10
2023-01-04T18:14:51.449Z,1.93
2023-01-04T18:17:19.639Z,1.10
2023-01-04T18:19:47.712Z,1.23
2023-01-04T18:22:15.839Z,1.67
2023-01-04T18:24:43.891Z,2.10
2023-01-04T18:27:23.037Z,2.00
2023-01-04T18:29:53.328Z,2.40
2023-01-04T18:32:21.919Z,1.53
2023-01-04T18:34:50.057Z,4.20
2023-01-04T18:37:18.742Z,4.37
2023-01-04T18:39:47.487Z,4.17
2023-01-04T18:42:15.673Z,4.60
2023-01-04T18:44:51.074Z,4.93
2023-01-04T18:47:21.420Z,4.20
2023-01-04T18:49:49.861Z,4.27
2023-01-04T18:52:18.336Z,4.30
2023-01-04T18:54:47.900Z,3.67
2023-01-04T18:57:16.767Z,3.87
2023-01-04T18:59:49.839Z,5.17
2023-01-04T19:02:21.166Z,4.37
2023-01-04T19:04:49.240Z,1.07
2023-01-04T19:07:17.329Z,1.80
2023-01-04T19:09:45.398Z,1.80
2023-01-04T19:12:13.406Z,1.93
2023-01-04T19:14:41.911Z,2.57
2023-01-04T19:17:10.299Z,0.83
2023-01-04T19:19:39.946Z,1.93
2023-01-04T19:22:08.024Z,1.80
2023-01-04T19:24:36.047Z,1.87
2023-01-04T19:27:05.323Z,0.60
2023-01-04T19:29:34.126Z,1.67
2023-01-04T19:32:02.231Z,1.07
2023-01-04T19:34:30.567Z,2.60
2023-01-04T19:37:00.123Z,2.07
2023-01-04T19:39:28.126Z,1.10
2023-01-04T19:41:56.190Z,1.47
2023-01-04T19:44:24.170Z,1.20
2023-01-04T19:46:52.198Z,0.83
2023-01-04T19:49:20.146Z,1.63
2023-01-04T19:51:51.564Z,1.20
2023-01-04T19:54:25.501Z,1.00
2023-01-04T19:56:54.803Z,1.23
2023-01-04T19:59:23.606Z,0.90
2023-01-04T20:01:51.923Z,2.63
2023-01-04T20:04:20.400Z,1.83
2023-01-04T20:06:48.745Z,1.40
2023-01-04T20:09:18.493Z,2.60
2023-01-04T20:11:49.863Z,2.53
2023-01-04T20:14:17.856Z,2.07
2023-01-04T20:16:45.931Z,2.47
2023-01-04T20:19:14.073Z,2.50
2023-01-04T20:21:42.075Z,2.47
2023-01-04T20:24:10.232Z,2.70
2023-01-04T20:26:39.644Z,2.33
2023-01-04T20:29:09.030Z,3.73
2023-01-04T20:31:40.885Z,3.03
2023-01-04T20:34:13.154Z,3.97
2023-01-04T20:36:41.155Z,2.70
2023-01-04T20:39:09.134Z,1.97
2023-01-04T20:41:37.182Z,2.47
2023-01-04T20:44:04.489Z,2.40
2023-01-04T20:46:34.182Z,3.03
2023-01-04T20:49:03.429Z,3.83
2023-01-04T20:51:31.993Z,3.93
2023-01-04T20:54:00.746Z,2.57
2023-01-04T20:56:31.563Z,0.80
2023-01-04T20:59:00.738Z,1.00
2023-01-04T21:01:28.962Z,1.77
2023-01-04T21:04:01.239Z,1.20
2023-01-04T21:06:30.656Z,1.33
2023-01-04T21:08:58.791Z,1.20
2023-01-04T21:11:27.756Z,1.23
2023-01-04T21:13:56.315Z,1.17
2023-01-04T21:16:24.465Z,0.70
2023-01-04T21:18:52.569Z,1.17
2023-01-04T21:21:21.972Z,0.87
2023-01-04T21:23:56.046Z,1.47
2023-01-04T21:26:26.911Z,1.50
2023-01-04T21:28:55.037Z,1.60
2023-01-04T21:31:26.173Z,1.57
2023-01-04T21:33:55.560Z,1.97
2023-01-04T21:36:27.453Z,1.87
2023-01-04T21:38:57.372Z,0.90
2023-01-04T21:41:26.541Z,1.60
2023-01-04T21:43:56.303Z,1.17
2023-01-04T21:46:25.531Z,1.43
2023-01-04T21:48:55.725Z,1.27
2023-01-04T21:51:25.479Z,0.50
2023-01-04T21:53:53.745Z,0.90
2023-01-04T21:56:24.428Z,1.00
2023-01-04T21:58:52.878Z,0.83
2023-01-04T22:01:22.867Z,1.17
2023-01-04T22:03:51.714Z,1.83
2023-01-04T22:06:21.155Z,1.60
2023-01-04T22:08:51.690Z,2.83
2023-01-04T22:11:19.813Z,2.00
2023-01-04T22:13:49.614Z,1.60
2023-01-04T22:16:18.207Z,2.37
2023-01-04T22:18:49.961Z,1.77
2023-01-04T22:21:19.777Z,1.63
2023-01-04T22:23:47.915Z,1.40
2023-01-04T22:26:17.352Z,1.97
2023-01-04T22:28:45.443Z,2.50
2023-01-04T22:31:15.026Z,0.93
2023-01-04T22:33:45.049Z,1.37
2023-01-04T22:36:21.715Z,2.07
2023-01-04T22:38:51.627Z,1.57
2023-01-04T22:41:22.502Z,1.60
2023-01-04T22:43:55.993Z,0.93
2023-01-04T22:46:24.898Z,1.03
2023-01-04T22:48:53.325Z,0.57
2023-01-04T22:51:22.070Z,1.10
2023-01-04T22:53:50.497Z,1.07
2023-01-04T22:56:23.466Z,0.70
2023-01-04T22:58:54.998Z,0.73
2023-01-04T23:01:24.832Z,1.33
2023-01-04T23:03:53.259Z,0.40
2023-01-04T23:06:22.506Z,0.73
2023-01-04T23:08:56.335Z,0.33
2023-01-04T23:11:26.657Z,2.27
2023-01-04T23:13:55.067Z,1.17
2023-01-04T23:16:29.577Z,1.50
2023-01-04T23:18:59.801Z,1.80
2023-01-04T23:21:27.838Z,0.67
2023-01-04T23:23:55.948Z,0.40
2023-01-04T23:26:26.707Z,2.20
2023-01-04T23:28:54.792Z,1.40
2023-01-04T23:31:25.043Z,1.50
2023-01-04T23:33:55.128Z,0.90
2023-01-04T23:36:25.037Z,1.43
2023-01-04T23:38:55.647Z,0.63
2023-01-04T23:41:44.544Z,0.67
2023-01-04T23:46:53.147Z,0.50
2023-01-04T23:49:21.245Z,1.03
2023-01-04T23:51:49.255Z,0.33
2023-01-04T23:54:17.296Z,0.40
2023-01-04T23:56:46.629Z,0.30
2023-01-04T23:59:14.636Z,0.40
